sensor_id;sensor_type;location;lat;lon;timestamp;noise_LAeq;noise_LA_min;noise_LA_max;noise_LA01;noise_LA95
82130;Laerm;72992;50.450;9.918;2023-10-08T00:01:43;42.78;41.20;45.22;;
82130;Laerm;72992;50.450;9.918;2023-10-08T00:04:09;47.96;41.34;61.65;;
82130;Laerm;72992;50.450;9.918;2023-10-08T00:06:43;42.96;41.08;49.53;;
82130;Laerm;72992;50.450;9.918;2023-10-08T00:09:10;42.47;40.82;52.03;;
82130;Laerm;72992;50.450;9.918;2023-10-08T00:11:36;54.25;40.91;69.30;;
82130;Laerm;72992;50.450;9.918;2023-10-08T00:14:03;51.51;41.36;64.65;;
82130;Laerm;72992;50.450;9.918;2023-10-08T00:16:30;53.46;41.45;68.61;;
82130;Laerm;72992;50.450;9.918;2023-10-08T00:18:58;48.54;40.73;63.06;;
82130;Laerm;72992;50.450;9.918;2023-10-08T00:21:33;49.31;40.90;64.52;;
82130;Laerm;72992;50.450;9.918;2023-10-08T00:24:00;42.27;40.66;44.99;;
82130;Laerm;72992;50.450;9.918;2023-10-08T00:26:25;55.78;41.55;72.12;;
82130;Laerm;72992;50.450;9.918;2023-10-08T00:28:57;53.72;41.94;67.93;;
82130;Laerm;72992;50.450;9.918;2023-10-08T00:31:24;43.00;41.66;45.14;;
82130;Laerm;72992;50.450;9.918;2023-10-08T00:33:57;49.76;40.82;63.42;;
82130;Laerm;72992;50.450;9.918;2023-10-08T00:36:22;49.79;40.69;65.75;;
82130;Laerm;72992;50.450;9.918;2023-10-08T00:38:49;43.92;40.58;57.42;;
82130;Laerm;72992;50.450;9.918;2023-10-08T00:41:16;41.90;40.41;47.47;;
82130;Laerm;72992;50.450;9.918;2023-10-08T00:43:47;53.85;40.77;66.66;;
82130;Laerm;72992;50.450;9.918;2023-10-08T00:46:38;46.99;40.37;62.14;;
82130;Laerm;72992;50.450;9.918;2023-10-08T00:49:12;41.72;40.54;43.64;;
82130;Laerm;72992;50.450;9.918;2023-10-08T00:51:47;50.80;40.54;64.10;;
82130;Laerm;72992;50.450;9.918;2023-10-08T00:54:13;41.82;40.77;44.55;;
82130;Laerm;72992;50.450;9.918;2023-10-08T00:56:42;54.43;40.95;71.34;;
82130;Laerm;72992;50.450;9.918;2023-10-08T00:59:22;41.77;40.58;47.87;;
82130;Laerm;72992;50.450;9.918;2023-10-08T01:01:51;47.66;40.67;62.38;;
82130;Laerm;72992;50.450;9.918;2023-10-08T01:04:24;55.41;41.08;71.11;;
82130;Laerm;72992;50.450;9.918;2023-10-08T01:06:52;50.50;41.59;64.15;;
82130;Laerm;72992;50.450;9.918;2023-10-08T01:09:21;54.66;40.48;68.12;;
82130;Laerm;72992;50.450;9.918;2023-10-08T01:12:08;41.65;40.41;44.05;;
82130;Laerm;72992;50.450;9.918;2023-10-08T01:14:34;50.52;40.03;67.36;;
82130;Laerm;72992;50.450;9.918;2023-10-08T01:17:00;50.10;40.64;64.48;;
82130;Laerm;72992;50.450;9.918;2023-10-08T01:19:26;48.97;40.89;64.34;;
82130;Laerm;72992;50.450;9.918;2023-10-08T01:21:53;41.85;40.71;44.06;;
82130;Laerm;72992;50.450;9.918;2023-10-08T01:24:18;47.42;40.83;62.00;;
82130;Laerm;72992;50.450;9.918;2023-10-08T01:26:48;48.62;40.84;64.29;;
82130;Laerm;72992;50.450;9.918;2023-10-08T01:29:14;47.35;40.80;60.47;;
82130;Laerm;72992;50.450;9.918;2023-10-08T01:31:45;50.69;40.34;66.50;;
82130;Laerm;72992;50.450;9.918;2023-10-08T01:34:11;41.62;40.50;50.88;;
82130;Laerm;72992;50.450;9.918;2023-10-08T01:36:41;51.31;41.04;63.52;;
82130;Laerm;72992;50.450;9.918;2023-10-08T01:39:09;49.98;40.61;64.44;;
82130;Laerm;72992;50.450;9.918;2023-10-08T01:41:42;48.37;40.60;62.76;;
82130;Laerm;72992;50.450;9.918;2023-10-08T01:44:07;49.93;40.33;64.56;;
82130;Laerm;72992;50.450;9.918;2023-10-08T01:46:33;48.69;40.68;62.21;;
82130;Laerm;72992;50.450;9.918;2023-10-08T01:48:59;50.38;40.63;66.49;;
82130;Laerm;72992;50.450;9.918;2023-10-08T01:51:38;41.67;40.61;43.44;;
82130;Laerm;72992;50.450;9.918;2023-10-08T01:54:04;41.56;40.55;43.41;;
82130;Laerm;72992;50.450;9.918;2023-10-08T01:56:37;41.59;40.37;43.98;;
82130;Laerm;72992;50.450;9.918;2023-10-08T01:59:03;41.73;40.64;43.42;;
82130;Laerm;72992;50.450;9.918;2023-10-08T02:01:29;41.54;40.44;44.80;;
82130;Laerm;72992;50.450;9.918;2023-10-08T02:03:54;41.45;40.30;43.39;;
82130;Laerm;72992;50.450;9.918;2023-10-08T02:06:20;41.58;40.57;43.66;;
82130;Laerm;72992;50.450;9.918;2023-10-08T02:08:46;52.18;40.64;66.83;;
82130;Laerm;72992;50.450;9.918;2023-10-08T02:11:12;41.60;40.64;43.00;;
82130;Laerm;72992;50.450;9.918;2023-10-08T02:13:40;41.58;40.55;42.61;;
82130;Laerm;72992;50.450;9.918;2023-10-08T02:16:07;41.37;40.31;42.27;;
82130;Laerm;72992;50.450;9.918;2023-10-08T02:18:33;41.46;40.40;42.52;;
82130;Laerm;72992;50.450;9.918;2023-10-08T02:20:58;41.54;40.58;42.58;;
82130;Laerm;72992;50.450;9.918;2023-10-08T02:23:24;49.32;40.48;64.34;;
82130;Laerm;72992;50.450;9.918;2023-10-08T02:25:49;41.48;40.26;42.75;;
82130;Laerm;72992;50.450;9.918;2023-10-08T02:28:14;46.09;40.40;59.53;;
82130;Laerm;72992;50.450;9.918;2023-10-08T02:30:41;50.03;40.46;66.25;;
82130;Laerm;72992;50.450;9.918;2023-10-08T02:33:06;48.57;40.41;63.35;;
82130;Laerm;72992;50.450;9.918;2023-10-08T02:35:44;49.93;40.29;66.30;;
82130;Laerm;72992;50.450;9.918;2023-10-08T02:38:10;49.10;40.54;63.47;;
82130;Laerm;72992;50.450;9.918;2023-10-08T02:40:38;51.87;40.75;67.24;;
82130;Laerm;72992;50.450;9.918;2023-10-08T02:43:09;41.66;40.26;46.32;;
82130;Laerm;72992;50.450;9.918;2023-10-08T02:45:36;50.20;40.57;64.28;;
82130;Laerm;72992;50.450;9.918;2023-10-08T02:48:04;41.69;40.29;45.20;;
82130;Laerm;72992;50.450;9.918;2023-10-08T02:50:36;49.20;40.49;64.19;;
82130;Laerm;72992;50.450;9.918;2023-10-08T02:53:02;41.32;40.02;45.86;;
82130;Laerm;72992;50.450;9.918;2023-10-08T02:55:36;41.49;40.23;45.26;;
82130;Laerm;72992;50.450;9.918;2023-10-08T02:58:01;47.86;40.31;61.88;;
82130;Laerm;72992;50.450;9.918;2023-10-08T03:00:28;41.50;40.21;43.88;;
82130;Laerm;72992;50.450;9.918;2023-10-08T03:02:55;47.35;40.46;62.32;;
82130;Laerm;72992;50.450;9.918;2023-10-08T03:05:20;48.29;40.25;63.08;;
82130;Laerm;72992;50.450;9.918;2023-10-08T03:07:47;41.47;40.24;43.51;;
82130;Laerm;72992;50.450;9.918;2023-10-08T03:10:16;49.62;40.06;63.16;;
82130;Laerm;72992;50.450;9.918;2023-10-08T03:12:43;41.09;40.18;42.17;;
82130;Laerm;72992;50.450;9.918;2023-10-08T03:15:08;41.14;40.09;42.73;;
82130;Laerm;72992;50.450;9.918;2023-10-08T03:17:53;50.40;40.10;63.68;;
82130;Laerm;72992;50.450;9.918;2023-10-08T03:20:19;52.02;40.24;66.44;;
82130;Laerm;72992;50.450;9.918;2023-10-08T03:23:05;53.98;40.39;69.68;;
82130;Laerm;72992;50.450;9.918;2023-10-08T03:25:51;50.23;40.34;64.63;;
82130;Laerm;72992;50.450;9.918;2023-10-08T03:28:22;41.26;40.01;44.36;;
82130;Laerm;72992;50.450;9.918;2023-10-08T03:30:50;41.22;40.02;42.80;;
82130;Laerm;72992;50.450;9.918;2023-10-08T03:33:18;51.26;40.60;64.52;;
82130;Laerm;72992;50.450;9.918;2023-10-08T03:35:52;52.32;40.76;63.97;;
82130;Laerm;72992;50.450;9.918;2023-10-08T03:38:18;52.64;40.19;66.45;;
82130;Laerm;72992;50.450;9.918;2023-10-08T03:40:49;54.63;40.57;71.00;;
82130;Laerm;72992;50.450;9.918;2023-10-08T03:43:15;52.46;40.11;67.90;;
82130;Laerm;72992;50.450;9.918;2023-10-08T03:45:42;41.40;40.36;42.65;;
82130;Laerm;72992;50.450;9.918;2023-10-08T03:48:15;54.06;40.88;64.46;;
82130;Laerm;72992;50.450;9.918;2023-10-08T03:50:41;41.39;40.35;44.31;;
82130;Laerm;72992;50.450;9.918;2023-10-08T03:53:08;50.35;40.43;64.47;;
82130;Laerm;72992;50.450;9.918;2023-10-08T03:55:39;53.64;40.49;67.04;;
82130;Laerm;72992;50.450;9.918;2023-10-08T03:58:08;53.37;40.42;67.12;;
82130;Laerm;72992;50.450;9.918;2023-10-08T04:00:53;52.74;40.35;66.36;;
82130;Laerm;72992;50.450;9.918;2023-10-08T04:03:31;48.70;40.20;62.80;;
82130;Laerm;72992;50.450;9.918;2023-10-08T04:06:16;42.12;40.49;52.17;;
82130;Laerm;72992;50.450;9.918;2023-10-08T04:08:47;52.18;40.01;65.24;;
82130;Laerm;72992;50.450;9.918;2023-10-08T04:11:26;53.57;40.63;64.01;;
82130;Laerm;72992;50.450;9.918;2023-10-08T04:13:57;47.77;40.27;62.09;;
82130;Laerm;72992;50.450;9.918;2023-10-08T04:16:26;47.56;40.21;61.78;;
82130;Laerm;72992;50.450;9.918;2023-10-08T04:18:53;42.38;40.14;52.90;;
82130;Laerm;72992;50.450;9.918;2023-10-08T04:21:21;51.94;40.29;67.10;;
82130;Laerm;72992;50.450;9.918;2023-10-08T04:23:47;50.42;40.39;63.55;;
82130;Laerm;72992;50.450;9.918;2023-10-08T04:26:18;41.28;40.04;46.23;;
82130;Laerm;72992;50.450;9.918;2023-10-08T04:28:52;55.27;41.03;67.33;;
82130;Laerm;72992;50.450;9.918;2023-10-08T04:31:20;48.61;40.24;65.29;;
82130;Laerm;72992;50.450;9.918;2023-10-08T04:33:49;53.99;40.25;66.91;;
82130;Laerm;72992;50.450;9.918;2023-10-08T04:36:16;49.92;40.15;65.59;;
82130;Laerm;72992;50.450;9.918;2023-10-08T04:38:44;51.68;40.08;63.08;;
82130;Laerm;72992;50.450;9.918;2023-10-08T04:41:13;52.87;40.58;65.73;;
82130;Laerm;72992;50.450;9.918;2023-10-08T04:43:42;52.22;40.55;65.46;;
82130;Laerm;72992;50.450;9.918;2023-10-08T04:46:08;53.35;40.40;62.97;;
82130;Laerm;72992;50.450;9.918;2023-10-08T04:48:59;54.47;40.28;63.76;;
82130;Laerm;72992;50.450;9.918;2023-10-08T04:51:30;46.58;40.72;59.64;;
82130;Laerm;72992;50.450;9.918;2023-10-08T04:53:59;53.19;40.62;65.69;;
82130;Laerm;72992;50.450;9.918;2023-10-08T04:56:25;57.51;41.65;72.86;;
82130;Laerm;72992;50.450;9.918;2023-10-08T04:58:53;55.85;40.72;67.69;;
82130;Laerm;72992;50.450;9.918;2023-10-08T05:01:37;53.29;40.51;69.15;;
82130;Laerm;72992;50.450;9.918;2023-10-08T05:04:43;56.72;41.06;70.04;;
82130;Laerm;72992;50.450;9.918;2023-10-08T05:07:49;55.49;40.52;70.11;;
82130;Laerm;72992;50.450;9.918;2023-10-08T05:10:15;52.23;40.37;65.97;;
82130;Laerm;72992;50.450;9.918;2023-10-08T05:12:57;54.89;40.84;68.72;;
82130;Laerm;72992;50.450;9.918;2023-10-08T05:15:28;55.60;40.56;67.74;;
82130;Laerm;72992;50.450;9.918;2023-10-08T05:18:07;53.00;40.47;65.37;;
82130;Laerm;72992;50.450;9.918;2023-10-08T05:20:48;54.85;40.42;68.57;;
82130;Laerm;72992;50.450;9.918;2023-10-08T05:23:17;56.49;41.72;67.08;;
82130;Laerm;72992;50.450;9.918;2023-10-08T05:25:55;51.28;40.86;65.16;;
82130;Laerm;72992;50.450;9.918;2023-10-08T05:28:25;56.19;42.41;66.04;;
82130;Laerm;72992;50.450;9.918;2023-10-08T05:30:50;54.07;41.15;65.96;;
82130;Laerm;72992;50.450;9.918;2023-10-08T05:33:34;60.81;41.78;83.24;;
82130;Laerm;72992;50.450;9.918;2023-10-08T05:36:34;57.13;41.21;72.59;;
82130;Laerm;72992;50.450;9.918;2023-10-08T05:39:15;53.47;40.98;65.24;;
82130;Laerm;72992;50.450;9.918;2023-10-08T05:41:49;54.53;40.54;68.39;;
82130;Laerm;72992;50.450;9.918;2023-10-08T05:44:17;53.82;41.21;64.05;;
82130;Laerm;72992;50.450;9.918;2023-10-08T05:46:43;55.40;42.05;65.41;;
82130;Laerm;72992;50.450;9.918;2023-10-08T05:49:31;57.88;41.64;71.19;;
82130;Laerm;72992;50.450;9.918;2023-10-08T05:51:57;56.82;41.72;67.60;;
82130;Laerm;72992;50.450;9.918;2023-10-08T05:54:39;51.30;41.20;63.06;;
82130;Laerm;72992;50.450;9.918;2023-10-08T05:57:23;56.42;41.72;67.04;;
82130;Laerm;72992;50.450;9.918;2023-10-08T06:00:04;54.10;40.93;65.61;;
82130;Laerm;72992;50.450;9.918;2023-10-08T06:02:30;67.41;55.40;73.82;;
82130;Laerm;72992;50.450;9.918;2023-10-08T06:05:00;67.40;59.47;73.95;;
82130;Laerm;72992;50.450;9.918;2023-10-08T06:07:44;57.39;42.31;67.11;;
82130;Laerm;72992;50.450;9.918;2023-10-08T06:10:19;58.05;41.26;69.46;;
82130;Laerm;72992;50.450;9.918;2023-10-08T06:13:03;56.50;41.22;68.08;;
82130;Laerm;72992;50.450;9.918;2023-10-08T06:15:36;55.02;41.72;66.71;;
82130;Laerm;72992;50.450;9.918;2023-10-08T06:18:19;57.19;42.51;67.36;;
82130;Laerm;72992;50.450;9.918;2023-10-08T06:20:48;57.16;43.96;67.47;;
82130;Laerm;72992;50.450;9.918;2023-10-08T06:23:16;60.20;44.22;69.48;;
82130;Laerm;72992;50.450;9.918;2023-10-08T06:25:43;63.94;41.74;78.79;;
82130;Laerm;72992;50.450;9.918;2023-10-08T06:28:15;54.66;41.93;66.40;;
82130;Laerm;72992;50.450;9.918;2023-10-08T06:30:44;58.58;42.03;67.45;;
82130;Laerm;72992;50.450;9.918;2023-10-08T06:33:09;61.05;50.73;71.69;;
82130;Laerm;72992;50.450;9.918;2023-10-08T06:35:35;59.49;43.01;67.54;;
82130;Laerm;72992;50.450;9.918;2023-10-08T06:38:01;58.24;41.38;68.85;;
82130;Laerm;72992;50.450;9.918;2023-10-08T06:40:33;56.06;42.21;66.44;;
82130;Laerm;72992;50.450;9.918;2023-10-08T06:43:01;59.35;42.84;68.37;;
82130;Laerm;72992;50.450;9.918;2023-10-08T06:45:39;56.08;42.70;64.96;;
82130;Laerm;72992;50.450;9.918;2023-10-08T06:48:06;58.59;42.09;68.41;;
82130;Laerm;72992;50.450;9.918;2023-10-08T06:50:34;56.58;41.69;68.68;;
82130;Laerm;72992;50.450;9.918;2023-10-08T06:53:01;58.11;42.47;66.46;;
82130;Laerm;72992;50.450;9.918;2023-10-08T06:55:31;55.33;41.93;67.54;;
82130;Laerm;72992;50.450;9.918;2023-10-08T06:57:56;61.52;46.70;68.60;;
82130;Laerm;72992;50.450;9.918;2023-10-08T07:00:22;59.16;44.57;68.99;;
82130;Laerm;72992;50.450;9.918;2023-10-08T07:03:03;59.99;43.52;71.79;;
82130;Laerm;72992;50.450;9.918;2023-10-08T07:05:29;59.81;44.04;69.37;;
82130;Laerm;72992;50.450;9.918;2023-10-08T07:07:54;55.73;43.30;65.74;;
82130;Laerm;72992;50.450;9.918;2023-10-08T07:10:19;60.90;43.84;73.70;;
82130;Laerm;72992;50.450;9.918;2023-10-08T07:12:48;61.58;43.50;69.49;;
82130;Laerm;72992;50.450;9.918;2023-10-08T07:15:13;59.69;44.21;68.35;;
82130;Laerm;72992;50.450;9.918;2023-10-08T07:17:39;59.95;43.54;68.05;;
82130;Laerm;72992;50.450;9.918;2023-10-08T07:20:08;60.21;44.37;67.78;;
82130;Laerm;72992;50.450;9.918;2023-10-08T07:22:46;61.07;44.65;71.09;;
82130;Laerm;72992;50.450;9.918;2023-10-08T07:25:15;67.66;63.06;73.68;;
82130;Laerm;72992;50.450;9.918;2023-10-08T07:27:45;67.68;61.90;73.39;;
82130;Laerm;72992;50.450;9.918;2023-10-08T07:30:12;68.29;62.36;79.54;;
82130;Laerm;72992;50.450;9.918;2023-10-08T07:32:38;62.99;46.31;71.08;;
82130;Laerm;72992;50.450;9.918;2023-10-08T07:35:04;59.74;41.90;68.42;;
82130;Laerm;72992;50.450;9.918;2023-10-08T07:37:47;58.74;43.28;68.95;;
82130;Laerm;72992;50.450;9.918;2023-10-08T07:40:13;59.51;44.67;67.18;;
82130;Laerm;72992;50.450;9.918;2023-10-08T07:42:39;62.08;48.23;76.19;;
82130;Laerm;72992;50.450;9.918;2023-10-08T07:45:04;59.94;44.66;67.90;;
82130;Laerm;72992;50.450;9.918;2023-10-08T07:47:30;61.50;44.93;69.06;;
82130;Laerm;72992;50.450;9.918;2023-10-08T07:49:55;60.15;45.02;68.25;;
82130;Laerm;72992;50.450;9.918;2023-10-08T07:52:21;59.96;43.19;66.62;;
82130;Laerm;72992;50.450;9.918;2023-10-08T07:54:46;61.29;43.68;69.06;;
82130;Laerm;72992;50.450;9.918;2023-10-08T07:57:13;60.12;43.53;71.86;;
82130;Laerm;72992;50.450;9.918;2023-10-08T07:59:42;63.04;45.50;69.53;;
82130;Laerm;72992;50.450;9.918;2023-10-08T08:02:16;61.24;44.59;67.95;;
82130;Laerm;72992;50.450;9.918;2023-10-08T08:04:42;61.69;45.57;71.70;;
82130;Laerm;72992;50.450;9.918;2023-10-08T08:07:15;61.19;46.13;72.59;;
82130;Laerm;72992;50.450;9.918;2023-10-08T08:09:44;60.84;45.01;68.26;;
82130;Laerm;72992;50.450;9.918;2023-10-08T08:12:16;63.76;50.19;75.99;;
82130;Laerm;72992;50.450;9.918;2023-10-08T08:14:41;63.60;52.20;72.30;;
82130;Laerm;72992;50.450;9.918;2023-10-08T08:17:09;62.22;46.07;72.58;;
82130;Laerm;72992;50.450;9.918;2023-10-08T08:19:45;61.41;46.55;68.85;;
82130;Laerm;72992;50.450;9.918;2023-10-08T08:22:15;63.90;50.81;69.98;;
82130;Laerm;72992;50.450;9.918;2023-10-08T08:24:46;65.33;57.78;72.28;;
82130;Laerm;72992;50.450;9.918;2023-10-08T08:27:12;64.71;58.72;70.34;;
82130;Laerm;72992;50.450;9.918;2023-10-08T08:29:49;61.51;47.31;69.72;;
82130;Laerm;72992;50.450;9.918;2023-10-08T08:32:14;61.42;45.18;68.31;;
82130;Laerm;72992;50.450;9.918;2023-10-08T08:34:46;62.02;46.45;69.40;;
82130;Laerm;72992;50.450;9.918;2023-10-08T08:37:15;59.64;44.66;67.88;;
82130;Laerm;72992;50.450;9.918;2023-10-08T08:39:41;60.98;44.49;68.71;;
82130;Laerm;72992;50.450;9.918;2023-10-08T08:42:06;60.92;43.94;69.03;;
82130;Laerm;72992;50.450;9.918;2023-10-08T08:44:34;61.78;50.45;68.33;;
82130;Laerm;72992;50.450;9.918;2023-10-08T08:47:01;63.42;52.84;70.58;;
82130;Laerm;72992;50.450;9.918;2023-10-08T08:49:32;60.86;46.43;72.79;;
82130;Laerm;72992;50.450;9.918;2023-10-08T08:51:58;60.16;45.25;67.03;;
82130;Laerm;72992;50.450;9.918;2023-10-08T08:54:26;68.02;45.82;84.91;;
82130;Laerm;72992;50.450;9.918;2023-10-08T08:56:52;63.02;48.71;69.46;;
82130;Laerm;72992;50.450;9.918;2023-10-08T08:59:18;62.94;50.61;73.08;;
82130;Laerm;72992;50.450;9.918;2023-10-08T09:01:45;59.47;46.42;66.50;;
82130;Laerm;72992;50.450;9.918;2023-10-08T09:04:12;62.03;47.38;68.99;;
82130;Laerm;72992;50.450;9.918;2023-10-08T09:06:41;63.61;51.45;73.44;;
82130;Laerm;72992;50.450;9.918;2023-10-08T09:09:07;61.83;48.18;68.28;;
82130;Laerm;72992;50.450;9.918;2023-10-08T09:11:50;63.57;44.85;70.76;;
82130;Laerm;72992;50.450;9.918;2023-10-08T09:14:25;62.36;49.62;68.45;;
82130;Laerm;72992;50.450;9.918;2023-10-08T09:16:51;65.64;44.47;85.21;;
82130;Laerm;72992;50.450;9.918;2023-10-08T09:19:17;61.46;44.81;67.04;;
82130;Laerm;72992;50.450;9.918;2023-10-08T09:24:31;60.87;48.41;74.48;;
82130;Laerm;72992;50.450;9.918;2023-10-08T09:26:58;63.17;50.02;70.52;;
82130;Laerm;72992;50.450;9.918;2023-10-08T09:29:24;62.55;47.78;72.79;;
82130;Laerm;72992;50.450;9.918;2023-10-08T09:31:53;63.81;50.05;71.84;;
82130;Laerm;72992;50.450;9.918;2023-10-08T09:34:20;65.06;46.49;79.57;;
82130;Laerm;72992;50.450;9.918;2023-10-08T09:36:46;61.87;47.62;68.70;;
82130;Laerm;72992;50.450;9.918;2023-10-08T09:39:11;61.58;43.57;69.76;;
82130;Laerm;72992;50.450;9.918;2023-10-08T09:41:46;62.05;49.13;68.83;;
82130;Laerm;72992;50.450;9.918;2023-10-08T09:44:13;62.29;48.37;68.94;;
82130;Laerm;72992;50.450;9.918;2023-10-08T09:46:38;61.25;44.38;67.63;;
82130;Laerm;72992;50.450;9.918;2023-10-08T09:49:05;62.61;44.10;74.99;;
82130;Laerm;72992;50.450;9.918;2023-10-08T09:51:33;61.97;41.95;71.83;;
82130;Laerm;72992;50.450;9.918;2023-10-08T09:56:29;62.77;49.92;74.73;;
82130;Laerm;72992;50.450;9.918;2023-10-08T09:58:54;60.54;48.68;69.20;;
82130;Laerm;72992;50.450;9.918;2023-10-08T10:01:20;63.39;53.82;69.88;;
82130;Laerm;72992;50.450;9.918;2023-10-08T10:03:47;62.52;46.53;70.64;;
82130;Laerm;72992;50.450;9.918;2023-10-08T10:06:13;60.62;43.54;73.83;;
82130;Laerm;72992;50.450;9.918;2023-10-08T10:08:41;62.96;49.18;70.24;;
82130;Laerm;72992;50.450;9.918;2023-10-08T10:11:07;60.27;43.50;66.25;;
82130;Laerm;72992;50.450;9.918;2023-10-08T10:13:34;63.91;50.87;71.04;;
82130;Laerm;72992;50.450;9.918;2023-10-08T10:16:04;62.65;46.33;71.64;;
82130;Laerm;72992;50.450;9.918;2023-10-08T10:18:33;63.10;48.92;75.54;;
82130;Laerm;72992;50.450;9.918;2023-10-08T10:20:59;62.64;46.80;72.23;;
82130;Laerm;72992;50.450;9.918;2023-10-08T10:23:34;62.52;46.41;71.17;;
82130;Laerm;72992;50.450;9.918;2023-10-08T10:26:01;63.00;49.06;72.69;;
82130;Laerm;72992;50.450;9.918;2023-10-08T10:28:27;61.30;41.80;67.55;;
82130;Laerm;72992;50.450;9.918;2023-10-08T10:30:55;61.07;45.45;68.11;;
82130;Laerm;72992;50.450;9.918;2023-10-08T10:33:20;61.07;47.60;68.74;;
82130;Laerm;72992;50.450;9.918;2023-10-08T10:35:50;61.40;45.20;67.56;;
82130;Laerm;72992;50.450;9.918;2023-10-08T10:38:18;61.35;42.22;69.19;;
82130;Laerm;72992;50.450;9.918;2023-10-08T10:40:48;64.26;45.19;69.98;;
82130;Laerm;72992;50.450;9.918;2023-10-08T10:43:23;62.44;43.65;69.90;;
82130;Laerm;72992;50.450;9.918;2023-10-08T10:45:54;61.77;42.89;71.91;;
82130;Laerm;72992;50.450;9.918;2023-10-08T10:48:20;60.78;43.76;72.19;;
82130;Laerm;72992;50.450;9.918;2023-10-08T10:50:46;61.60;44.76;67.39;;
82130;Laerm;72992;50.450;9.918;2023-10-08T10:53:13;61.11;44.86;69.17;;
82130;Laerm;72992;50.450;9.918;2023-10-08T10:55:39;62.35;50.70;74.74;;
82130;Laerm;72992;50.450;9.918;2023-10-08T10:58:13;63.93;50.65;77.53;;
82130;Laerm;72992;50.450;9.918;2023-10-08T11:00:43;63.46;43.80;74.09;;
82130;Laerm;72992;50.450;9.918;2023-10-08T11:03:09;67.30;48.22;83.88;;
82130;Laerm;72992;50.450;9.918;2023-10-08T11:05:49;63.64;50.92;77.82;;
82130;Laerm;72992;50.450;9.918;2023-10-08T11:08:16;58.95;42.85;66.09;;
82130;Laerm;72992;50.450;9.918;2023-10-08T11:10:43;63.43;43.66;71.54;;
82130;Laerm;72992;50.450;9.918;2023-10-08T11:13:13;64.25;48.85;73.69;;
82130;Laerm;72992;50.450;9.918;2023-10-08T11:15:42;62.19;51.50;68.14;;
82130;Laerm;72992;50.450;9.918;2023-10-08T11:18:09;61.55;46.38;69.57;;
82130;Laerm;72992;50.450;9.918;2023-10-08T11:20:34;61.77;44.51;70.04;;
82130;Laerm;72992;50.450;9.918;2023-10-08T11:23:05;61.41;43.17;72.57;;
82130;Laerm;72992;50.450;9.918;2023-10-08T11:25:52;65.74;47.18;79.65;;
82130;Laerm;72992;50.450;9.918;2023-10-08T11:28:18;59.26;41.52;67.19;;
82130;Laerm;72992;50.450;9.918;2023-10-08T11:30:43;63.42;48.74;78.71;;
82130;Laerm;72992;50.450;9.918;2023-10-08T11:33:12;60.34;41.91;68.38;;
82130;Laerm;72992;50.450;9.918;2023-10-08T11:35:54;62.42;51.60;70.44;;
82130;Laerm;72992;50.450;9.918;2023-10-08T11:38:20;62.10;46.56;72.06;;
82130;Laerm;72992;50.450;9.918;2023-10-08T11:40:47;62.38;48.58;74.29;;
82130;Laerm;72992;50.450;9.918;2023-10-08T11:43:21;62.42;49.81;69.48;;
82130;Laerm;72992;50.450;9.918;2023-10-08T11:45:46;62.07;49.54;67.97;;
82130;Laerm;72992;50.450;9.918;2023-10-08T11:48:15;61.90;43.61;69.09;;
82130;Laerm;72992;50.450;9.918;2023-10-08T11:50:47;64.79;44.29;78.34;;
82130;Laerm;72992;50.450;9.918;2023-10-08T11:53:12;61.59;50.60;67.86;;
82130;Laerm;72992;50.450;9.918;2023-10-08T11:55:38;62.38;47.02;68.23;;
82130;Laerm;72992;50.450;9.918;2023-10-08T11:58:07;62.51;49.85;73.45;;
82130;Laerm;72992;50.450;9.918;2023-10-08T12:00:37;63.65;50.73;76.22;;
82130;Laerm;72992;50.450;9.918;2023-10-08T12:03:09;64.72;46.94;75.59;;
82130;Laerm;72992;50.450;9.918;2023-10-08T12:05:35;63.56;48.38;70.96;;
82130;Laerm;72992;50.450;9.918;2023-10-08T12:08:01;62.38;46.23;70.11;;
82130;Laerm;72992;50.450;9.918;2023-10-08T12:10:26;62.28;51.93;70.62;;
82130;Laerm;72992;50.450;9.918;2023-10-08T12:12:53;63.07;51.47;74.32;;
82130;Laerm;72992;50.450;9.918;2023-10-08T12:15:19;65.79;52.09;73.79;;
82130;Laerm;72992;50.450;9.918;2023-10-08T12:17:46;61.85;46.15;69.74;;
82130;Laerm;72992;50.450;9.918;2023-10-08T12:20:18;65.29;48.26;76.57;;
82130;Laerm;72992;50.450;9.918;2023-10-08T12:22:50;64.50;47.96;70.11;;
82130;Laerm;72992;50.450;9.918;2023-10-08T12:25:16;64.37;53.82;71.31;;
82130;Laerm;72992;50.450;9.918;2023-10-08T12:27:41;67.17;53.90;79.61;;
82130;Laerm;72992;50.450;9.918;2023-10-08T12:30:07;65.36;49.87;73.28;;
82130;Laerm;72992;50.450;9.918;2023-10-08T12:32:36;62.60;47.38;69.03;;
82130;Laerm;72992;50.450;9.918;2023-10-08T12:35:03;61.53;47.44;69.66;;
82130;Laerm;72992;50.450;9.918;2023-10-08T12:37:28;64.38;47.54;74.95;;
82130;Laerm;72992;50.450;9.918;2023-10-08T12:39:55;62.68;51.01;69.85;;
82130;Laerm;72992;50.450;9.918;2023-10-08T12:42:36;63.91;50.36;69.73;;
82130;Laerm;72992;50.450;9.918;2023-10-08T12:45:04;62.64;45.38;69.98;;
82130;Laerm;72992;50.450;9.918;2023-10-08T12:47:36;64.32;51.43;69.12;;
82130;Laerm;72992;50.450;9.918;2023-10-08T12:50:02;61.58;50.05;68.86;;
82130;Laerm;72992;50.450;9.918;2023-10-08T12:52:32;64.79;52.92;79.00;;
82130;Laerm;72992;50.450;9.918;2023-10-08T12:55:00;63.90;48.59;71.70;;
82130;Laerm;72992;50.450;9.918;2023-10-08T12:57:32;64.19;46.30;72.89;;
82130;Laerm;72992;50.450;9.918;2023-10-08T13:00:00;62.70;49.61;68.46;;
82130;Laerm;72992;50.450;9.918;2023-10-08T13:02:28;64.80;56.56;77.62;;
82130;Laerm;72992;50.450;9.918;2023-10-08T13:04:54;63.50;48.45;73.91;;
82130;Laerm;72992;50.450;9.918;2023-10-08T13:07:25;62.47;49.94;68.54;;
82130;Laerm;72992;50.450;9.918;2023-10-08T13:09:51;62.44;49.37;69.33;;
82130;Laerm;72992;50.450;9.918;2023-10-08T13:12:17;63.71;50.92;72.39;;
82130;Laerm;72992;50.450;9.918;2023-10-08T13:14:42;63.41;51.03;71.01;;
82130;Laerm;72992;50.450;9.918;2023-10-08T13:17:10;62.58;48.44;70.61;;
82130;Laerm;72992;50.450;9.918;2023-10-08T13:19:36;63.42;50.75;69.50;;
82130;Laerm;72992;50.450;9.918;2023-10-08T13:22:01;60.82;44.76;68.33;;
82130;Laerm;72992;50.450;9.918;2023-10-08T13:24:31;61.15;46.97;69.36;;
82130;Laerm;72992;50.450;9.918;2023-10-08T13:26:57;63.61;44.63;72.49;;
82130;Laerm;72992;50.450;9.918;2023-10-08T13:29:23;62.87;53.36;72.77;;
82130;Laerm;72992;50.450;9.918;2023-10-08T13:31:51;63.19;51.62;68.80;;
82130;Laerm;72992;50.450;9.918;2023-10-08T13:34:31;65.04;51.82;72.82;;
82130;Laerm;72992;50.450;9.918;2023-10-08T13:36:57;63.80;43.70;70.29;;
82130;Laerm;72992;50.450;9.918;2023-10-08T13:39:22;66.14;52.89;71.55;;
82130;Laerm;72992;50.450;9.918;2023-10-08T13:41:47;65.35;48.42;71.05;;
82130;Laerm;72992;50.450;9.918;2023-10-08T13:44:13;66.14;51.81;72.34;;
82130;Laerm;72992;50.450;9.918;2023-10-08T13:46:38;65.58;52.12;73.06;;
82130;Laerm;72992;50.450;9.918;2023-10-08T13:49:11;66.25;53.77;73.22;;
82130;Laerm;72992;50.450;9.918;2023-10-08T13:51:39;65.93;48.31;73.21;;
82130;Laerm;72992;50.450;9.918;2023-10-08T13:54:04;65.01;52.67;74.45;;
82130;Laerm;72992;50.450;9.918;2023-10-08T13:56:34;66.34;47.12;72.61;;
82130;Laerm;72992;50.450;9.918;2023-10-08T13:59:03;65.89;56.32;70.71;;
82130;Laerm;72992;50.450;9.918;2023-10-08T14:01:31;64.95;53.99;71.06;;
82130;Laerm;72992;50.450;9.918;2023-10-08T14:03:58;63.82;53.35;72.88;;